メインページ
METAR-TAF:

METAR-TAF

空港 :

Olean, ニューヨーク, アメリカ合衆国

緯度: 42-14-28N, 経度: 078-22-17W, 海抜: 651m

現時点の気象観測

当レポートは11分前の16:55(UTC)に作成
西/北西の風 7kt、西/南西から北西の間で変化する
気温 26°C
湿度 70%
気圧 1015 hPa
視程: 16.1km
晴天

METAR: KOLE 211655Z AUTO 30007KT 250V320 10SM CLR 26/20 A2997 RMK AO2

時間: 13:06 (17:06 UTC)


TAF: 見つかりません

4,000以上の空港の気象観測と天気予報(METAR報とTAF報)

利用可能な観測所は地図上に黄色い丸と赤い丸で示す。

丸の上にカーソルを重ねると観測所名を参照できる。

次にクリックすると気象観測と天気予報を参照できる。

マップの切り替え:黒色「×」印の緑ボタンをクリックして拡大、「-」印の緑ボタンをクリックして縮小、緑色の三角印をクリックして隣りの地図に切り替え


METAR-TAF: